createdAt,value
2017-10-09T00:04:52.138Z,6.60
2017-10-09T00:07:21.895Z,6.60
2017-10-09T00:09:49.847Z,6.60
2017-10-09T00:12:17.515Z,6.60
2017-10-09T00:14:45.255Z,6.60
2017-10-09T00:17:14.466Z,6.60
2017-10-09T00:19:42.220Z,6.60
2017-10-09T00:22:09.794Z,6.60
2017-10-09T00:24:37.349Z,6.60
2017-10-09T00:27:06.476Z,6.60
2017-10-09T00:29:34.051Z,6.60
2017-10-09T00:32:01.681Z,6.50
2017-10-09T00:34:29.216Z,6.60
2017-10-09T00:36:57.075Z,6.60
2017-10-09T00:39:24.591Z,6.50
2017-10-09T00:41:52.043Z,6.50
2017-10-09T00:44:19.509Z,6.50
2017-10-09T00:49:30.904Z,6.50
2017-10-09T00:51:59.012Z,6.50
2017-10-09T00:54:27.924Z,6.50
2017-10-09T00:56:56.294Z,6.50
2017-10-09T00:59:23.761Z,6.40
2017-10-09T01:01:51.299Z,6.50
2017-10-09T01:04:18.953Z,6.50
2017-10-09T01:06:46.484Z,6.50
2017-10-09T01:09:14.509Z,6.50
2017-10-09T01:11:42.887Z,6.50
2017-10-09T01:14:12.087Z,6.60
2017-10-09T01:16:40.363Z,6.60
2017-10-09T01:19:08.554Z,6.50
2017-10-09T01:21:36.663Z,6.50
2017-10-09T01:24:05.083Z,6.50
2017-10-09T01:26:33.507Z,6.50
2017-10-09T01:29:01.355Z,6.50
2017-10-09T01:31:29.157Z,6.50
2017-10-09T01:33:57.482Z,6.50
2017-10-09T01:36:27.584Z,6.50
2017-10-09T01:38:57.810Z,6.50
2017-10-09T01:41:26.226Z,6.50
2017-10-09T01:43:55.071Z,6.40
2017-10-09T01:46:23.404Z,6.40
2017-10-09T01:48:51.681Z,6.40
2017-10-09T01:51:20.159Z,6.40
2017-10-09T01:53:48.537Z,6.40
2017-10-09T01:56:19.179Z,6.40
2017-10-09T01:58:47.770Z,6.30
2017-10-09T02:01:16.049Z,6.30
2017-10-09T02:03:44.703Z,6.20
2017-10-09T02:06:12.777Z,6.30
2017-10-09T02:08:40.753Z,6.30
2017-10-09T02:11:08.673Z,6.30
2017-10-09T02:13:38.287Z,6.20
2017-10-09T02:16:06.731Z,6.20
2017-10-09T02:18:35.864Z,6.20
2017-10-09T02:21:04.072Z,6.20
2017-10-09T02:23:32.233Z,6.20
2017-10-09T02:25:59.934Z,6.20
2017-10-09T02:28:27.467Z,6.10
2017-10-09T02:30:55.446Z,6.00
2017-10-09T02:33:23.570Z,6.10
2017-10-09T02:35:52.611Z,6.10
2017-10-09T02:38:20.494Z,6.00
2017-10-09T02:40:49.424Z,6.00
2017-10-09T02:43:17.435Z,6.10
2017-10-09T02:45:45.879Z,6.10
2017-10-09T02:48:13.975Z,6.00
2017-10-09T02:50:42.217Z,6.10
2017-10-09T02:53:10.434Z,6.10
2017-10-09T02:55:39.554Z,6.20
2017-10-09T02:58:08.289Z,6.30
2017-10-09T03:00:37.876Z,6.30
2017-10-09T03:03:06.986Z,6.20
2017-10-09T03:05:34.643Z,6.00
2017-10-09T03:08:03.341Z,5.90
2017-10-09T03:10:31.250Z,5.90
2017-10-09T03:12:59.735Z,5.80
2017-10-09T03:15:27.432Z,5.80
2017-10-09T03:17:55.002Z,5.90
2017-10-09T03:20:23.448Z,6.00
2017-10-09T03:22:52.483Z,6.00
2017-10-09T03:25:20.986Z,6.10
2017-10-09T03:28:03.484Z,6.00
2017-10-09T03:30:31.577Z,6.10
2017-10-09T03:32:59.434Z,6.10
2017-10-09T03:35:28.766Z,6.10
2017-10-09T03:37:56.587Z,6.10
2017-10-09T03:40:24.501Z,6.10
2017-10-09T03:42:52.303Z,6.10
2017-10-09T03:45:19.941Z,6.10
2017-10-09T03:47:48.598Z,6.10
2017-10-09T03:50:16.145Z,6.00
2017-10-09T03:52:43.681Z,6.00
2017-10-09T03:55:11.212Z,5.90
2017-10-09T03:57:38.662Z,5.80
2017-10-09T04:00:07.091Z,5.80
2017-10-09T04:02:34.634Z,5.70
2017-10-09T04:05:02.144Z,5.80
2017-10-09T04:07:29.637Z,5.80
2017-10-09T04:09:57.104Z,5.90
2017-10-09T04:12:24.570Z,5.80
2017-10-09T04:14:52.811Z,5.80
2017-10-09T04:17:20.270Z,5.80
2017-10-09T04:19:47.727Z,5.80
2017-10-09T04:22:15.844Z,5.80
2017-10-09T04:24:44.171Z,5.90
2017-10-09T04:27:12.968Z,5.90
2017-10-09T04:29:41.742Z,5.80
2017-10-09T04:32:10.060Z,5.80
2017-10-09T04:34:38.712Z,5.80
2017-10-09T04:37:07.379Z,5.90
2017-10-09T04:39:35.756Z,5.90
2017-10-09T04:42:14.066Z,6.00
2017-10-09T04:44:44.749Z,6.00
2017-10-09T04:53:32.613Z,5.60
2017-10-09T04:56:09.001Z,5.60
2017-10-09T04:58:36.869Z,5.60
2017-10-09T05:01:05.039Z,5.50
2017-10-09T05:03:32.551Z,5.40
2017-10-09T05:06:01.790Z,5.50
2017-10-09T05:08:29.254Z,5.60
2017-10-09T05:10:56.710Z,5.70
2017-10-09T05:13:24.240Z,5.90
2017-10-09T05:15:51.834Z,6.00
2017-10-09T05:18:19.336Z,6.10
2017-10-09T05:20:46.925Z,6.10
2017-10-09T05:23:16.058Z,6.20
2017-10-09T05:25:44.251Z,6.20
2017-10-09T05:28:11.765Z,6.20
2017-10-09T05:30:39.237Z,6.10
2017-10-09T05:33:06.736Z,6.10
2017-10-09T05:35:34.221Z,6.20
2017-10-09T05:38:02.755Z,6.30
2017-10-09T05:40:30.228Z,6.30
2017-10-09T05:42:57.735Z,6.40
2017-10-09T05:45:25.264Z,6.50
2017-10-09T05:47:52.750Z,6.60
2017-10-09T05:50:20.675Z,6.80
2017-10-09T05:52:48.146Z,6.90
2017-10-09T05:55:15.635Z,7.10
2017-10-09T05:57:43.849Z,7.30
2017-10-09T06:00:11.479Z,7.30
2017-10-09T06:02:39.385Z,7.50
2017-10-09T06:05:06.957Z,7.60
2017-10-09T06:07:34.547Z,7.70
2017-10-09T06:10:02.187Z,7.80
2017-10-09T06:12:29.794Z,7.90
2017-10-09T06:14:57.325Z,8.00
2017-10-09T06:17:25.613Z,8.30
2017-10-09T06:19:53.286Z,8.30
2017-10-09T06:22:20.824Z,8.40
2017-10-09T06:24:48.579Z,8.50
2017-10-09T06:27:16.403Z,8.60
2017-10-09T06:29:44.244Z,8.80
2017-10-09T06:32:12.693Z,8.90
2017-10-09T06:34:40.242Z,9.00
2017-10-09T06:37:08.141Z,9.10
2017-10-09T06:39:35.787Z,9.20
2017-10-09T06:42:03.658Z,9.30
2017-10-09T06:44:32.136Z,9.40
2017-10-09T06:46:59.995Z,9.50
2017-10-09T06:49:28.066Z,9.70
2017-10-09T06:51:55.689Z,9.80
2017-10-09T06:54:23.192Z,9.90
2017-10-09T06:56:52.901Z,10.00
2017-10-09T06:59:20.927Z,10.00
2017-10-09T07:01:48.797Z,10.10
2017-10-09T07:04:16.575Z,10.20
2017-10-09T07:06:45.820Z,10.20
2017-10-09T07:09:13.361Z,10.30
2017-10-09T07:11:40.937Z,10.40
2017-10-09T07:14:08.579Z,10.50
2017-10-09T07:16:36.568Z,10.50
2017-10-09T07:19:04.466Z,10.60
2017-10-09T07:21:32.188Z,10.70
2017-10-09T07:24:00.078Z,10.70
2017-10-09T07:26:27.966Z,10.90
2017-10-09T07:28:56.074Z,10.80
2017-10-09T07:31:25.391Z,11.00
2017-10-09T07:33:54.262Z,11.00
2017-10-09T07:36:22.310Z,11.10
2017-10-09T07:38:50.922Z,11.20
2017-10-09T07:41:18.857Z,11.20
2017-10-09T07:43:46.715Z,11.20
2017-10-09T07:46:15.309Z,11.30
2017-10-09T07:48:43.999Z,11.40
2017-10-09T07:51:12.265Z,11.50
2017-10-09T07:53:39.900Z,11.50
2017-10-09T07:56:08.534Z,11.50
2017-10-09T07:58:36.871Z,11.50
2017-10-09T08:01:04.810Z,11.60
2017-10-09T08:03:32.347Z,11.60
2017-10-09T08:05:59.814Z,11.70
2017-10-09T08:08:27.309Z,11.80
2017-10-09T08:10:54.782Z,11.90
2017-10-09T08:13:22.264Z,11.90
2017-10-09T08:15:49.745Z,12.00
2017-10-09T08:18:17.267Z,12.10
2017-10-09T08:20:44.730Z,12.20
2017-10-09T08:23:12.209Z,12.20
2017-10-09T08:25:39.665Z,12.30
2017-10-09T08:28:07.349Z,12.30
2017-10-09T08:30:34.961Z,12.40
2017-10-09T08:33:02.522Z,12.40
2017-10-09T08:35:30.063Z,12.40
2017-10-09T08:37:57.530Z,12.40
2017-10-09T08:40:25.050Z,12.40
2017-10-09T08:42:52.742Z,12.50
2017-10-09T08:45:20.462Z,12.50
2017-10-09T08:47:49.357Z,12.50
2017-10-09T08:50:17.596Z,12.60
2017-10-09T08:52:47.005Z,12.50
2017-10-09T08:55:16.131Z,12.40
2017-10-09T08:57:44.979Z,12.40
2017-10-09T09:00:15.211Z,12.40
2017-10-09T09:02:44.599Z,12.40
2017-10-09T09:05:12.816Z,12.30
2017-10-09T09:07:43.080Z,12.10
2017-10-09T09:10:11.617Z,12.00
2017-10-09T09:12:39.788Z,12.10
2017-10-09T09:15:09.456Z,12.00
2017-10-09T09:17:37.131Z,11.90
2017-10-09T09:20:05.545Z,11.90
2017-10-09T09:22:33.511Z,11.70
2017-10-09T09:25:01.626Z,11.70
2017-10-09T09:27:29.864Z,11.80
2017-10-09T09:29:58.887Z,11.80
2017-10-09T09:32:27.498Z,11.70
2017-10-09T09:35:00.736Z,11.70
2017-10-09T09:37:29.095Z,11.70
2017-10-09T09:42:30.281Z,11.90
2017-10-09T09:44:58.413Z,11.90
2017-10-09T09:47:28.337Z,12.10
2017-10-09T09:49:56.119Z,12.00
2017-10-09T09:52:28.050Z,12.10
2017-10-09T09:54:56.623Z,12.10
2017-10-09T09:57:24.432Z,12.20
2017-10-09T09:59:53.930Z,12.30
2017-10-09T10:02:23.315Z,12.30
2017-10-09T10:04:51.070Z,12.50
2017-10-09T10:07:18.540Z,12.60
2017-10-09T10:09:46.010Z,12.80
2017-10-09T10:12:13.471Z,12.90
2017-10-09T10:14:40.954Z,12.80
2017-10-09T10:17:08.426Z,12.70
2017-10-09T10:19:36.465Z,12.60
2017-10-09T10:22:04.199Z,12.60
2017-10-09T10:24:32.063Z,12.60
2017-10-09T10:26:59.781Z,12.50
2017-10-09T10:29:27.413Z,12.40
2017-10-09T10:31:55.197Z,12.50
2017-10-09T10:34:22.707Z,12.40
2017-10-09T10:36:50.967Z,12.50
2017-10-09T10:39:18.635Z,12.50
2017-10-09T10:41:46.275Z,12.60
2017-10-09T10:44:13.818Z,12.60
2017-10-09T10:46:41.543Z,12.70
2017-10-09T10:49:09.046Z,12.70
2017-10-09T10:51:36.503Z,12.60
2017-10-09T10:54:03.959Z,12.80
2017-10-09T10:56:31.430Z,12.80
2017-10-09T10:58:58.893Z,12.90
2017-10-09T11:01:26.343Z,13.00
2017-10-09T11:03:53.794Z,13.00
2017-10-09T11:06:21.254Z,13.20
2017-10-09T11:08:48.709Z,13.30
2017-10-09T11:11:16.150Z,13.40
2017-10-09T11:13:43.632Z,13.40
2017-10-09T11:16:11.098Z,13.60
2017-10-09T11:18:38.542Z,13.70
2017-10-09T11:21:05.998Z,13.80
2017-10-09T11:23:33.457Z,13.90
2017-10-09T11:26:00.943Z,13.80
2017-10-09T11:28:28.638Z,13.90
2017-10-09T11:30:56.160Z,13.70
2017-10-09T11:33:23.904Z,13.80
2017-10-09T11:35:51.527Z,13.70
2017-10-09T11:38:19.155Z,13.80
2017-10-09T11:40:47.139Z,13.80
2017-10-09T11:43:14.871Z,13.90
2017-10-09T11:45:42.626Z,13.90
2017-10-09T11:48:10.256Z,14.10
2017-10-09T11:50:37.925Z,14.20
2017-10-09T11:53:05.403Z,14.20
2017-10-09T11:55:32.895Z,14.40
2017-10-09T11:58:00.337Z,14.40
2017-10-09T12:00:27.811Z,14.40
2017-10-09T12:02:55.314Z,14.40
2017-10-09T12:05:22.823Z,14.40
2017-10-09T12:07:50.287Z,14.30
2017-10-09T12:10:17.806Z,14.20
2017-10-09T12:12:45.288Z,14.30
2017-10-09T12:15:13.544Z,14.30
2017-10-09T12:20:14.916Z,14.30
2017-10-09T12:22:43.401Z,14.40
2017-10-09T12:25:10.934Z,14.50
2017-10-09T12:27:38.470Z,14.50
2017-10-09T12:30:05.978Z,14.60
2017-10-09T12:32:33.425Z,14.60
2017-10-09T12:35:00.905Z,14.60
2017-10-09T12:37:28.363Z,14.60
2017-10-09T12:39:55.830Z,14.70
2017-10-09T12:42:24.427Z,14.70
2017-10-09T12:44:51.878Z,14.60
2017-10-09T12:47:19.315Z,14.50
2017-10-09T12:49:46.803Z,14.40
2017-10-09T12:52:14.285Z,14.50
2017-10-09T12:54:41.787Z,14.40
2017-10-09T12:57:09.254Z,14.40
2017-10-09T12:59:36.734Z,14.50
2017-10-09T13:02:04.238Z,14.60
2017-10-09T13:04:31.695Z,14.50
2017-10-09T13:06:59.191Z,14.50
2017-10-09T13:09:26.723Z,14.40
2017-10-09T13:11:54.952Z,14.40
2017-10-09T13:14:22.423Z,14.40
2017-10-09T13:16:49.923Z,14.30
2017-10-09T13:19:18.193Z,14.50
2017-10-09T13:21:45.704Z,14.50
2017-10-09T13:24:13.194Z,14.40
2017-10-09T13:26:41.443Z,14.50
2017-10-09T13:29:09.046Z,14.50
2017-10-09T13:31:38.447Z,14.30
2017-10-09T13:34:05.950Z,14.20
2017-10-09T13:36:33.471Z,14.10
2017-10-09T13:39:01.030Z,14.10
2017-10-09T13:41:32.902Z,13.90
2017-10-09T13:44:00.439Z,13.80
2017-10-09T13:46:27.975Z,13.70
2017-10-09T13:48:55.438Z,13.70
2017-10-09T13:51:24.243Z,13.80
2017-10-09T13:53:51.788Z,13.70
2017-10-09T13:56:19.233Z,13.70
2017-10-09T13:58:46.690Z,13.70
2017-10-09T14:01:14.156Z,13.70
2017-10-09T14:03:42.423Z,13.90
2017-10-09T14:06:10.619Z,13.90
2017-10-09T14:08:38.850Z,13.70
2017-10-09T14:11:07.442Z,13.70
2017-10-09T14:13:34.910Z,13.60
2017-10-09T14:16:02.360Z,13.60
2017-10-09T14:18:29.836Z,13.50
2017-10-09T14:20:57.322Z,13.50
2017-10-09T14:23:24.951Z,13.40
2017-10-09T14:25:52.545Z,13.30
2017-10-09T14:28:20.408Z,13.20
2017-10-09T14:30:47.972Z,13.20
2017-10-09T14:40:37.936Z,13.10
2017-10-09T14:43:05.406Z,13.10
2017-10-09T14:45:32.917Z,13.00
2017-10-09T14:48:01.880Z,12.90
2017-10-09T14:50:30.234Z,12.70
2017-10-09T14:53:00.102Z,12.70
2017-10-09T14:55:27.801Z,12.70
2017-10-09T14:57:56.412Z,12.60
2017-10-09T15:00:23.919Z,12.60
2017-10-09T15:02:51.473Z,12.50
2017-10-09T15:05:19.064Z,12.50
2017-10-09T15:07:48.284Z,12.50
2017-10-09T15:10:15.748Z,12.50
2017-10-09T15:12:43.224Z,12.70
2017-10-09T15:15:10.699Z,12.70
2017-10-09T15:17:38.994Z,12.70
2017-10-09T15:20:07.681Z,12.60
2017-10-09T15:22:41.576Z,12.70
2017-10-09T15:25:09.268Z,12.70
2017-10-09T15:27:40.718Z,12.50
2017-10-09T15:30:29.136Z,12.40
2017-10-09T15:40:45.116Z,12.10
2017-10-09T15:43:13.384Z,12.10
2017-10-09T15:45:41.170Z,12.10
2017-10-09T17:10:21.108Z,12.00
2017-10-09T17:12:48.597Z,12.20
2017-10-09T17:15:16.244Z,12.10
2017-10-09T17:17:43.710Z,12.20
2017-10-09T17:20:11.210Z,12.20
2017-10-09T17:22:39.476Z,12.20
2017-10-09T17:25:06.932Z,12.20
2017-10-09T17:27:34.491Z,12.30
2017-10-09T17:30:02.763Z,12.30
2017-10-09T17:32:30.334Z,12.30
2017-10-09T17:34:57.796Z,12.40
2017-10-09T17:37:25.309Z,12.30
2017-10-09T17:39:52.777Z,12.40
2017-10-09T17:42:20.318Z,12.40
2017-10-09T17:44:47.854Z,12.40
2017-10-09T17:47:15.366Z,12.40
2017-10-09T17:49:42.927Z,12.50
2017-10-09T17:52:10.405Z,12.40
2017-10-09T17:54:37.954Z,12.50
2017-10-09T17:57:05.422Z,12.50
2017-10-09T17:59:32.978Z,12.50
2017-10-09T18:02:00.591Z,12.50
2017-10-09T18:04:28.089Z,12.60
2017-10-09T18:06:55.639Z,12.60
2017-10-09T18:09:23.163Z,12.60
2017-10-09T18:11:50.691Z,12.70
2017-10-09T18:14:18.240Z,12.70
2017-10-09T18:16:45.795Z,12.70
2017-10-09T18:19:13.305Z,12.70
2017-10-09T18:21:40.806Z,12.70
2017-10-09T18:24:08.274Z,12.60
2017-10-09T18:26:35.728Z,12.70
2017-10-09T18:29:03.278Z,12.70
2017-10-09T18:31:30.772Z,12.70
2017-10-09T18:33:58.276Z,12.70
2017-10-09T18:36:26.518Z,12.70
2017-10-09T18:38:54.014Z,12.70
2017-10-09T18:41:21.474Z,12.70
2017-10-09T18:43:48.988Z,12.70
2017-10-09T18:46:16.478Z,12.80
2017-10-09T18:48:44.709Z,12.80
2017-10-09T18:51:12.327Z,12.80
2017-10-09T18:53:39.782Z,12.80
2017-10-09T18:56:07.290Z,12.80
2017-10-09T18:58:34.765Z,12.80
2017-10-09T19:01:02.368Z,12.80
2017-10-09T19:03:29.863Z,12.80
2017-10-09T19:05:57.331Z,12.80
2017-10-09T19:08:24.817Z,12.90
2017-10-09T19:10:52.266Z,12.90
2017-10-09T19:13:19.751Z,12.90
2017-10-09T19:15:47.337Z,12.90
2017-10-09T19:18:14.847Z,12.90
2017-10-09T19:20:42.409Z,12.90
2017-10-09T19:23:09.974Z,12.90
2017-10-09T19:25:37.541Z,12.90
2017-10-09T19:28:04.986Z,12.90
2017-10-09T19:30:33.222Z,12.90
2017-10-09T19:33:00.730Z,12.90
2017-10-09T19:35:28.245Z,12.90
2017-10-09T19:37:56.300Z,12.80
2017-10-09T19:40:23.809Z,12.80
2017-10-09T19:42:52.079Z,12.80
2017-10-09T19:45:19.652Z,12.80
2017-10-09T19:47:47.174Z,12.70
2017-10-09T19:50:14.848Z,12.70
2017-10-09T19:52:42.306Z,12.70
2017-10-09T19:55:09.773Z,12.70
2017-10-09T19:57:38.353Z,12.60
2017-10-09T20:00:05.930Z,12.60
2017-10-09T20:02:33.434Z,12.70
2017-10-09T20:05:00.922Z,12.60
2017-10-09T20:07:28.389Z,12.70
2017-10-09T20:09:55.855Z,12.60
2017-10-09T20:12:23.981Z,12.60
2017-10-09T20:14:51.458Z,12.60
2017-10-09T20:17:18.943Z,12.60
2017-10-09T20:19:47.178Z,12.60
2017-10-09T20:22:14.658Z,12.60
2017-10-09T20:24:42.129Z,12.50
2017-10-09T20:27:09.635Z,12.50
2017-10-09T20:29:37.130Z,12.50
2017-10-09T20:32:05.425Z,12.50
2017-10-09T20:34:32.939Z,12.50
2017-10-09T20:37:00.403Z,12.50
2017-10-09T20:39:27.890Z,12.40
2017-10-09T20:41:55.413Z,12.30
2017-10-09T20:44:23.232Z,12.40
2017-10-09T20:46:50.722Z,12.40
2017-10-09T20:49:18.232Z,12.30
2017-10-09T20:51:45.779Z,12.30
2017-10-09T20:54:14.011Z,12.30
2017-10-09T20:56:41.600Z,12.30
2017-10-09T20:59:09.099Z,12.30
2017-10-09T21:01:36.541Z,12.20
2017-10-09T21:04:04.121Z,12.20
2017-10-09T21:06:31.613Z,12.30
2017-10-09T21:08:59.098Z,12.20
2017-10-09T21:11:26.573Z,12.30
2017-10-09T21:13:54.074Z,12.30
2017-10-09T21:16:21.618Z,12.20
2017-10-09T21:18:49.142Z,12.30
2017-10-09T21:21:16.811Z,12.30
2017-10-09T21:23:45.187Z,12.40
2017-10-09T21:26:12.645Z,12.40
2017-10-09T21:28:40.111Z,12.40
2017-10-09T21:31:07.550Z,12.40
2017-10-09T21:33:35.063Z,12.40
2017-10-09T21:36:02.561Z,12.50
2017-10-09T21:38:30.888Z,12.50
2017-10-09T21:40:58.407Z,12.50
2017-10-09T21:43:26.029Z,12.50
2017-10-09T21:45:53.495Z,12.50
2017-10-09T21:48:21.031Z,12.50
2017-10-09T21:50:48.506Z,12.50
2017-10-09T21:53:15.983Z,12.60
2017-10-09T21:55:43.437Z,12.50
2017-10-09T21:58:10.909Z,12.60
2017-10-09T22:00:38.477Z,12.60
2017-10-09T22:03:05.995Z,12.50
2017-10-09T22:05:33.470Z,12.50
2017-10-09T22:08:00.933Z,12.50
2017-10-09T22:10:29.180Z,12.50
2017-10-09T22:12:56.686Z,12.50
2017-10-09T22:15:24.146Z,12.50
2017-10-09T22:20:30.303Z,12.50
2017-10-09T22:22:58.536Z,12.50
2017-10-09T22:25:26.055Z,12.50
2017-10-09T22:27:53.514Z,12.40
2017-10-09T22:30:20.967Z,12.50
2017-10-09T22:32:48.435Z,12.50
2017-10-09T22:35:15.885Z,12.50
2017-10-09T22:37:43.409Z,12.50
2017-10-09T22:40:10.886Z,12.50
2017-10-09T22:42:38.345Z,12.50
2017-10-09T22:45:05.920Z,12.50
2017-10-09T22:47:33.471Z,12.50
2017-10-09T22:50:01.810Z,12.50
2017-10-09T22:52:29.306Z,12.50
2017-10-09T22:54:56.829Z,12.50
2017-10-09T22:57:24.298Z,12.50
2017-10-09T22:59:51.827Z,12.50
2017-10-09T23:02:19.394Z,12.50
2017-10-09T23:04:46.996Z,12.60
2017-10-09T23:07:14.616Z,12.50
2017-10-09T23:09:42.102Z,12.60
2017-10-09T23:12:10.381Z,12.60
2017-10-09T23:14:38.418Z,12.60
2017-10-09T23:17:05.902Z,12.60
2017-10-09T23:19:33.356Z,12.60
2017-10-09T23:22:00.843Z,12.60
2017-10-09T23:24:28.310Z,12.60
2017-10-09T23:26:55.759Z,12.70
2017-10-09T23:29:23.225Z,12.70
2017-10-09T23:31:50.682Z,12.60
2017-10-09T23:34:18.135Z,12.60
2017-10-09T23:36:45.595Z,12.60
2017-10-09T23:39:13.062Z,12.60
2017-10-09T23:41:40.519Z,12.60
2017-10-09T23:44:07.970Z,12.60
2017-10-09T23:46:35.427Z,12.70
2017-10-09T23:49:02.891Z,12.60
2017-10-09T23:51:30.340Z,12.60
2017-10-09T23:53:57.803Z,12.60
2017-10-09T23:56:25.257Z,12.60
2017-10-09T23:58:52.721Z,12.60
